sensor_id;sensor_type;location;lat;lon;timestamp;pressure;altitude;pressure_sealevel;temperature;humidity
53011;BME280;42803;55.762;38.084;2024-03-07T00:02:02;100492.47;;;-10.27;77.79
53011;BME280;42803;55.762;38.084;2024-03-07T00:04:31;100492.38;;;-10.33;77.82
53011;BME280;42803;55.762;38.084;2024-03-07T00:07:00;100489.72;;;-10.29;77.65
53011;BME280;42803;55.762;38.084;2024-03-07T00:09:33;100491.38;;;-10.24;77.51
53011;BME280;42803;55.762;38.084;2024-03-07T00:12:03;100486.56;;;-10.13;77.26
53011;BME280;42803;55.762;38.084;2024-03-07T00:14:33;100484.19;;;-10.07;76.92
53011;BME280;42803;55.762;38.084;2024-03-07T00:17:03;100481.22;;;-10.04;76.58
53011;BME280;42803;55.762;38.084;2024-03-07T00:19:32;100477.38;;;-10.02;76.64
53011;BME280;42803;55.762;38.084;2024-03-07T00:22:01;100474.56;;;-9.94;76.43
53011;BME280;42803;55.762;38.084;2024-03-07T00:24:30;100483.31;;;-9.83;76.33
53011;BME280;42803;55.762;38.084;2024-03-07T00:27:01;100478.00;;;-9.84;75.94
53011;BME280;42803;55.762;38.084;2024-03-07T00:29:31;100476.78;;;-9.86;76.00
53011;BME280;42803;55.762;38.084;2024-03-07T00:32:03;100471.91;;;-9.90;76.19
53011;BME280;42803;55.762;38.084;2024-03-07T00:34:33;100468.38;;;-10.06;76.17
53011;BME280;42803;55.762;38.084;2024-03-07T00:37:02;100470.25;;;-10.24;76.11
53011;BME280;42803;55.762;38.084;2024-03-07T00:39:32;100470.44;;;-10.38;76.73
53011;BME280;42803;55.762;38.084;2024-03-07T00:42:03;100470.34;;;-10.44;77.32
53011;BME280;42803;55.762;38.084;2024-03-07T00:44:32;100469.56;;;-10.48;77.99
53011;BME280;42803;55.762;38.084;2024-03-07T00:47:02;100467.19;;;-10.52;78.73
53011;BME280;42803;55.762;38.084;2024-03-07T00:49:32;100475.13;;;-10.65;79.56
53011;BME280;42803;55.762;38.084;2024-03-07T00:52:01;100470.34;;;-10.73;79.80
53011;BME280;42803;55.762;38.084;2024-03-07T00:54:30;100467.72;;;-10.78;80.26
53011;BME280;42803;55.762;38.084;2024-03-07T00:56:59;100468.91;;;-10.86;80.42
53011;BME280;42803;55.762;38.084;2024-03-07T00:59:30;100468.13;;;-10.91;81.07
53011;BME280;42803;55.762;38.084;2024-03-07T01:01:59;100470.63;;;-10.91;81.20
53011;BME280;42803;55.762;38.084;2024-03-07T01:04:28;100477.00;;;-10.93;81.02
53011;BME280;42803;55.762;38.084;2024-03-07T01:06:59;100467.03;;;-10.97;81.31
53011;BME280;42803;55.762;38.084;2024-03-07T01:09:28;100465.81;;;-10.99;81.55
53011;BME280;42803;55.762;38.084;2024-03-07T01:11:57;100461.88;;;-10.93;81.90
53011;BME280;42803;55.762;38.084;2024-03-07T01:14:29;100457.47;;;-10.84;82.49
53011;BME280;42803;55.762;38.084;2024-03-07T01:16:59;100459.88;;;-10.80;81.68
53011;BME280;42803;55.762;38.084;2024-03-07T01:19:28;100460.69;;;-10.75;82.02
53011;BME280;42803;55.762;38.084;2024-03-07T01:21:57;100460.56;;;-10.71;82.03
53011;BME280;42803;55.762;38.084;2024-03-07T01:24:27;100450.47;;;-10.71;82.46
53011;BME280;42803;55.762;38.084;2024-03-07T01:26:56;100458.00;;;-10.62;82.35
53011;BME280;42803;55.762;38.084;2024-03-07T01:29:28;100451.09;;;-10.63;82.12
53011;BME280;42803;55.762;38.084;2024-03-07T01:31:58;100447.38;;;-10.65;82.09
53011;BME280;42803;55.762;38.084;2024-03-07T01:34:27;100445.66;;;-10.70;82.30
53011;BME280;42803;55.762;38.084;2024-03-07T01:36:56;100443.53;;;-10.72;82.37
53011;BME280;42803;55.762;38.084;2024-03-07T01:39:26;100444.59;;;-10.76;82.14
53011;BME280;42803;55.762;38.084;2024-03-07T01:41:55;100443.81;;;-10.81;82.17
53011;BME280;42803;55.762;38.084;2024-03-07T01:44:24;100439.31;;;-10.87;82.49
53011;BME280;42803;55.762;38.084;2024-03-07T01:46:54;100439.97;;;-10.98;82.91
53011;BME280;42803;55.762;38.084;2024-03-07T01:49:24;100432.66;;;-11.16;83.67
53011;BME280;42803;55.762;38.084;2024-03-07T01:51:54;100434.25;;;-11.26;84.04
53011;BME280;42803;55.762;38.084;2024-03-07T01:54:23;100443.28;;;-11.32;84.58
53011;BME280;42803;55.762;38.084;2024-03-07T01:56:52;100436.75;;;-11.36;85.20
53011;BME280;42803;55.762;38.084;2024-03-07T01:59:22;100444.84;;;-11.42;85.56
53011;BME280;42803;55.762;38.084;2024-03-07T02:01:51;100437.41;;;-11.46;85.74
53011;BME280;42803;55.762;38.084;2024-03-07T02:04:21;100431.16;;;-11.48;86.53
53011;BME280;42803;55.762;38.084;2024-03-07T02:06:53;100431.06;;;-11.44;86.94
53011;BME280;42803;55.762;38.084;2024-03-07T02:09:22;100423.75;;;-11.43;86.87
53011;BME280;42803;55.762;38.084;2024-03-07T02:11:53;100435.13;;;-11.45;86.90
53011;BME280;42803;55.762;38.084;2024-03-07T02:14:22;100429.72;;;-11.42;87.49
53011;BME280;42803;55.762;38.084;2024-03-07T02:16:51;100429.72;;;-11.42;87.61
53011;BME280;42803;55.762;38.084;2024-03-07T02:19:21;100423.75;;;-11.43;87.65
53011;BME280;42803;55.762;38.084;2024-03-07T02:21:52;100422.84;;;-11.43;87.74
53011;BME280;42803;55.762;38.084;2024-03-07T02:24:21;100422.84;;;-11.43;87.59
53011;BME280;42803;55.762;38.084;2024-03-07T02:26:51;100425.19;;;-11.49;88.04
53011;BME280;42803;55.762;38.084;2024-03-07T02:29:21;100426.38;;;-11.57;88.34
53011;BME280;42803;55.762;38.084;2024-03-07T02:31:50;100420.03;;;-11.55;88.69
53011;BME280;42803;55.762;38.084;2024-03-07T02:34:19;100409.16;;;-11.49;88.82
53011;BME280;42803;55.762;38.084;2024-03-07T02:36:49;100407.84;;;-11.47;89.22
53011;BME280;42803;55.762;38.084;2024-03-07T02:39:20;100406.63;;;-11.49;89.40
53011;BME280;42803;55.762;38.084;2024-03-07T02:41:50;100409.28;;;-11.54;89.60
53011;BME280;42803;55.762;38.084;2024-03-07T02:44:19;100410.75;;;-11.60;89.82
53011;BME280;42803;55.762;38.084;2024-03-07T02:46:48;100405.03;;;-11.59;90.16
53011;BME280;42803;55.762;38.084;2024-03-07T02:49:17;100408.22;;;-11.60;90.40
53011;BME280;42803;55.762;38.084;2024-03-07T02:51:48;100407.53;;;-11.68;90.84
53011;BME280;42803;55.762;38.084;2024-03-07T02:54:18;100404.31;;;-11.77;91.24
53011;BME280;42803;55.762;38.084;2024-03-07T02:56:48;100404.88;;;-11.84;91.43
53011;BME280;42803;55.762;38.084;2024-03-07T02:59:17;100397.84;;;-11.90;92.53
53011;BME280;42803;55.762;38.084;2024-03-07T03:01:47;100406.59;;;-11.88;92.57
53011;BME280;42803;55.762;38.084;2024-03-07T03:04:16;100407.13;;;-11.85;93.03
53011;BME280;42803;55.762;38.084;2024-03-07T03:06:45;100413.84;;;-11.80;93.72
53011;BME280;42803;55.762;38.084;2024-03-07T03:09:14;100405.91;;;-11.87;92.99
53011;BME280;42803;55.762;38.084;2024-03-07T03:11:47;100394.25;;;-11.96;92.90
53011;BME280;42803;55.762;38.084;2024-03-07T03:14:16;100406.28;;;-11.99;93.51
53011;BME280;42803;55.762;38.084;2024-03-07T03:16:46;100404.25;;;-12.06;94.16
53011;BME280;42803;55.762;38.084;2024-03-07T03:19:16;100395.78;;;-12.07;94.65
53011;BME280;42803;55.762;38.084;2024-03-07T03:21:45;100396.31;;;-12.04;95.23
53011;BME280;42803;55.762;38.084;2024-03-07T03:24:14;100402.97;;;-12.04;95.01
53011;BME280;42803;55.762;38.084;2024-03-07T03:26:43;100406.50;;;-12.08;95.31
53011;BME280;42803;55.762;38.084;2024-03-07T03:29:15;100400.56;;;-12.08;95.30
53011;BME280;42803;55.762;38.084;2024-03-07T03:31:46;100402.41;;;-12.07;95.63
53011;BME280;42803;55.762;38.084;2024-03-07T03:34:15;100401.47;;;-12.08;95.44
53011;BME280;42803;55.762;38.084;2024-03-07T03:36:45;100406.50;;;-12.08;95.17
53011;BME280;42803;55.762;38.084;2024-03-07T03:39:14;100395.91;;;-12.11;95.52
53011;BME280;42803;55.762;38.084;2024-03-07T03:41:43;100409.28;;;-12.06;95.75
53011;BME280;42803;55.762;38.084;2024-03-07T03:44:12;100397.00;;;-12.05;95.65
53011;BME280;42803;55.762;38.084;2024-03-07T03:46:43;100401.09;;;-12.05;95.65
53011;BME280;42803;55.762;38.084;2024-03-07T03:49:13;100401.47;;;-12.08;95.92
53011;BME280;42803;55.762;38.084;2024-03-07T03:51:42;100403.44;;;-12.11;95.75
53011;BME280;42803;55.762;38.084;2024-03-07T03:54:14;100398.84;;;-12.04;96.01
53011;BME280;42803;55.762;38.084;2024-03-07T03:56:44;100393.25;;;-12.07;96.34
53011;BME280;42803;55.762;38.084;2024-03-07T03:59:13;100393.25;;;-12.07;96.95
53011;BME280;42803;55.762;38.084;2024-03-07T04:01:44;100392.22;;;-12.03;97.07
53011;BME280;42803;55.762;38.084;2024-03-07T04:04:13;100385.75;;;-11.97;97.16
53011;BME280;42803;55.762;38.084;2024-03-07T04:06:42;100388.53;;;-11.95;96.98
53011;BME280;42803;55.762;38.084;2024-03-07T04:09:12;100388.16;;;-11.93;97.05
53011;BME280;42803;55.762;38.084;2024-03-07T04:11:44;100382.06;;;-11.89;96.87
53011;BME280;42803;55.762;38.084;2024-03-07T04:14:14;100381.28;;;-11.84;97.02
53011;BME280;42803;55.762;38.084;2024-03-07T04:16:45;100386.72;;;-11.77;97.13
53011;BME280;42803;55.762;38.084;2024-03-07T04:19:14;100385.28;;;-11.71;97.06
53011;BME280;42803;55.762;38.084;2024-03-07T04:21:43;100375.59;;;-11.64;96.75
53011;BME280;42803;55.762;38.084;2024-03-07T04:24:12;100376.66;;;-11.58;96.03
53011;BME280;42803;55.762;38.084;2024-03-07T04:26:42;100376.28;;;-11.55;95.70
53011;BME280;42803;55.762;38.084;2024-03-07T04:29:11;100370.69;;;-11.48;95.73
53011;BME280;42803;55.762;38.084;2024-03-07T04:31:40;100374.84;;;-11.39;95.93
53011;BME280;42803;55.762;38.084;2024-03-07T04:34:10;100364.88;;;-11.34;95.50
53011;BME280;42803;55.762;38.084;2024-03-07T04:36:40;100360.53;;;-11.25;94.95
53011;BME280;42803;55.762;38.084;2024-03-07T04:39:09;100362.09;;;-11.16;94.23
53011;BME280;42803;55.762;38.084;2024-03-07T04:41:52;100363.03;;;-11.06;93.60
53011;BME280;42803;55.762;38.084;2024-03-07T04:44:25;100362.38;;;-10.95;93.00
53011;BME280;42803;55.762;38.084;2024-03-07T04:46:54;100361.03;;;-10.83;92.49
53011;BME280;42803;55.762;38.084;2024-03-07T04:49:27;100363.13;;;-10.71;91.80
53011;BME280;42803;55.762;38.084;2024-03-07T04:51:58;100358.16;;;-10.56;91.08
53011;BME280;42803;55.762;38.084;2024-03-07T04:54:29;100361.47;;;-10.41;89.95
53011;BME280;42803;55.762;38.084;2024-03-07T04:57:00;100347.53;;;-10.24;89.08
53011;BME280;42803;55.762;38.084;2024-03-07T04:59:31;100351.94;;;-10.08;88.20
53011;BME280;42803;55.762;38.084;2024-03-07T05:02:00;100352.69;;;-9.93;87.40
53011;BME280;42803;55.762;38.084;2024-03-07T05:04:31;100353.41;;;-9.79;86.55
53011;BME280;42803;55.762;38.084;2024-03-07T05:07:00;100349.56;;;-9.62;85.90
53011;BME280;42803;55.762;38.084;2024-03-07T05:09:30;100346.41;;;-9.45;85.42
53011;BME280;42803;55.762;38.084;2024-03-07T05:12:01;100348.34;;;-9.23;85.66
53011;BME280;42803;55.762;38.084;2024-03-07T05:14:30;100342.03;;;-8.85;86.16
53011;BME280;42803;55.762;38.084;2024-03-07T05:16:59;100347.22;;;-8.74;85.07
53011;BME280;42803;55.762;38.084;2024-03-07T05:19:35;100342.69;;;-8.71;82.86
53011;BME280;42803;55.762;38.084;2024-03-07T05:22:04;100346.22;;;-8.65;81.85
53011;BME280;42803;55.762;38.084;2024-03-07T05:24:34;100343.34;;;-8.56;81.25
53011;BME280;42803;55.762;38.084;2024-03-07T05:27:04;100348.31;;;-8.47;80.72
53011;BME280;42803;55.762;38.084;2024-03-07T05:29:34;100348.63;;;-8.34;80.05
53011;BME280;42803;55.762;38.084;2024-03-07T05:32:20;100351.66;;;-8.10;79.63
53011;BME280;42803;55.762;38.084;2024-03-07T05:34:51;100353.22;;;-7.95;79.26
53011;BME280;42803;55.762;38.084;2024-03-07T05:37:23;100337.25;;;-7.79;78.47
53011;BME280;42803;55.762;38.084;2024-03-07T05:39:52;100337.16;;;-7.64;78.25
53011;BME280;42803;55.762;38.084;2024-03-07T05:42:21;100341.00;;;-7.45;77.27
53011;BME280;42803;55.762;38.084;2024-03-07T05:44:52;100332.84;;;-7.32;76.61
53011;BME280;42803;55.762;38.084;2024-03-07T05:47:22;100330.81;;;-7.24;75.93
53011;BME280;42803;55.762;38.084;2024-03-07T05:49:54;100324.16;;;-7.18;75.29
53011;BME280;42803;55.762;38.084;2024-03-07T05:52:23;100323.09;;;-7.08;75.20
53011;BME280;42803;55.762;38.084;2024-03-07T05:54:52;100326.38;;;-6.98;74.39
53011;BME280;42803;55.762;38.084;2024-03-07T05:57:21;100327.81;;;-6.89;73.96
53011;BME280;42803;55.762;38.084;2024-03-07T05:59:50;100314.22;;;-6.84;73.44
53011;BME280;42803;55.762;38.084;2024-03-07T06:02:20;100319.16;;;-6.74;73.11
53011;BME280;42803;55.762;38.084;2024-03-07T06:04:49;100327.03;;;-6.67;72.76
53011;BME280;42803;55.762;38.084;2024-03-07T06:07:20;100313.69;;;-6.55;72.40
53011;BME280;42803;55.762;38.084;2024-03-07T06:09:49;100315.38;;;-6.44;72.11
53011;BME280;42803;55.762;38.084;2024-03-07T06:12:18;100310.56;;;-6.26;71.76
53011;BME280;42803;55.762;38.084;2024-03-07T06:14:54;100306.47;;;-6.03;71.28
53011;BME280;42803;55.762;38.084;2024-03-07T06:17:24;100298.16;;;-5.79;70.50
53011;BME280;42803;55.762;38.084;2024-03-07T06:19:54;100300.47;;;-5.58;70.13
53011;BME280;42803;55.762;38.084;2024-03-07T06:22:24;100293.56;;;-5.37;69.54
53011;BME280;42803;55.762;38.084;2024-03-07T06:24:54;100303.25;;;-5.23;68.77
53011;BME280;42803;55.762;38.084;2024-03-07T06:27:23;100296.97;;;-5.03;68.19
53011;BME280;42803;55.762;38.084;2024-03-07T06:30:06;100294.38;;;-4.80;67.78
53011;BME280;42803;55.762;38.084;2024-03-07T06:32:37;100295.94;;;-4.70;67.22
53011;BME280;42803;55.762;38.084;2024-03-07T06:35:08;100288.50;;;-4.57;66.93
53011;BME280;42803;55.762;38.084;2024-03-07T06:37:40;100287.31;;;-4.42;66.19
53011;BME280;42803;55.762;38.084;2024-03-07T06:40:10;100280.72;;;-4.23;65.79
53011;BME280;42803;55.762;38.084;2024-03-07T06:42:41;100284.31;;;-4.04;65.19
53011;BME280;42803;55.762;38.084;2024-03-07T06:45:11;100288.66;;;-3.92;64.37
53011;BME280;42803;55.762;38.084;2024-03-07T06:47:40;100277.13;;;-3.72;64.28
53011;BME280;42803;55.762;38.084;2024-03-07T06:50:10;100276.34;;;-3.59;63.35
53011;BME280;42803;55.762;38.084;2024-03-07T06:53:01;100284.78;;;-3.42;63.07
53011;BME280;42803;55.762;38.084;2024-03-07T06:55:31;100274.88;;;-3.22;62.50
53011;BME280;42803;55.762;38.084;2024-03-07T06:58:01;100270.00;;;-3.02;61.99
53011;BME280;42803;55.762;38.084;2024-03-07T07:00:32;100264.66;;;-2.80;61.75
53011;BME280;42803;55.762;38.084;2024-03-07T07:03:06;100265.59;;;-2.61;60.83
53011;BME280;42803;55.762;38.084;2024-03-07T07:05:36;100265.53;;;-2.37;60.32
53011;BME280;42803;55.762;38.084;2024-03-07T07:08:26;100259.28;;;-2.02;59.51
53011;BME280;42803;55.762;38.084;2024-03-07T07:10:57;100254.50;;;-1.81;58.86
53011;BME280;42803;55.762;38.084;2024-03-07T07:13:26;100262.75;;;-1.70;58.14
53011;BME280;42803;55.762;38.084;2024-03-07T07:15:56;100258.50;;;-1.39;57.47
53011;BME280;42803;55.762;38.084;2024-03-07T07:18:25;100250.22;;;-1.18;57.79
53011;BME280;42803;55.762;38.084;2024-03-07T07:20:55;100249.69;;;-1.15;57.03
53011;BME280;42803;55.762;38.084;2024-03-07T07:23:26;100250.81;;;-1.01;55.85
53011;BME280;42803;55.762;38.084;2024-03-07T07:25:56;100250.22;;;-0.80;54.97
53011;BME280;42803;55.762;38.084;2024-03-07T07:28:25;100245.56;;;-0.69;54.62
53011;BME280;42803;55.762;38.084;2024-03-07T07:30:54;100252.31;;;-0.57;53.63
53011;BME280;42803;55.762;38.084;2024-03-07T07:33:25;100242.28;;;-0.36;53.46
53011;BME280;42803;55.762;38.084;2024-03-07T07:35:55;100235.00;;;-0.33;52.04
53011;BME280;42803;55.762;38.084;2024-03-07T07:38:26;100231.88;;;-0.17;51.16
53011;BME280;42803;55.762;38.084;2024-03-07T07:40:56;100226.09;;;-0.09;51.42
53011;BME280;42803;55.762;38.084;2024-03-07T07:43:26;100225.75;;;0.15;52.26
53011;BME280;42803;55.762;38.084;2024-03-07T07:46:09;100221.72;;;0.37;50.63
53011;BME280;42803;55.762;38.084;2024-03-07T07:48:39;100212.81;;;0.47;50.91
53011;BME280;42803;55.762;38.084;2024-03-07T07:51:10;100222.13;;;0.40;50.85
53011;BME280;42803;55.762;38.084;2024-03-07T07:53:42;100219.50;;;0.60;49.78
53011;BME280;42803;55.762;38.084;2024-03-07T07:56:12;100212.88;;;0.82;50.52
53011;BME280;42803;55.762;38.084;2024-03-07T07:58:43;100217.97;;;0.75;49.09
53011;BME280;42803;55.762;38.084;2024-03-07T08:01:12;100211.69;;;1.00;49.32
53011;BME280;42803;55.762;38.084;2024-03-07T08:03:44;100208.97;;;1.05;49.25
53011;BME280;42803;55.762;38.084;2024-03-07T08:06:20;100200.19;;;1.17;49.32
53011;BME280;42803;55.762;38.084;2024-03-07T08:08:51;100200.47;;;0.99;48.88
53011;BME280;42803;55.762;38.084;2024-03-07T08:11:20;100203.78;;;0.98;48.43
53011;BME280;42803;55.762;38.084;2024-03-07T08:13:50;100202.94;;;1.12;49.07
53011;BME280;42803;55.762;38.084;2024-03-07T08:16:19;100201.31;;;1.19;49.33
53011;BME280;42803;55.762;38.084;2024-03-07T08:18:49;100196.59;;;1.37;48.71
53011;BME280;42803;55.762;38.084;2024-03-07T08:21:20;100192.66;;;1.60;48.12
53011;BME280;42803;55.762;38.084;2024-03-07T08:23:52;100191.34;;;1.64;49.12
53011;BME280;42803;55.762;38.084;2024-03-07T08:26:23;100186.69;;;1.40;48.23
53011;BME280;42803;55.762;38.084;2024-03-07T08:28:53;100189.88;;;1.10;48.43
53011;BME280;42803;55.762;38.084;2024-03-07T08:31:23;100183.06;;;1.52;49.71
53011;BME280;42803;55.762;38.084;2024-03-07T08:33:54;100184.25;;;1.76;48.36
53011;BME280;42803;55.762;38.084;2024-03-07T08:36:23;100180.03;;;1.83;48.07
53011;BME280;42803;55.762;38.084;2024-03-07T08:38:54;100175.44;;;1.88;48.39
53011;BME280;42803;55.762;38.084;2024-03-07T08:41:23;100175.25;;;2.22;47.99
53011;BME280;42803;55.762;38.084;2024-03-07T08:43:53;100161.03;;;2.54;48.18
53011;BME280;42803;55.762;38.084;2024-03-07T08:46:22;100166.19;;;2.54;48.41
53011;BME280;42803;55.762;38.084;2024-03-07T08:48:51;100165.81;;;2.73;47.80
53011;BME280;42803;55.762;38.084;2024-03-07T08:51:21;100158.81;;;2.79;48.22
53011;BME280;42803;55.762;38.084;2024-03-07T08:53:50;100160.47;;;2.71;48.94
53011;BME280;42803;55.762;38.084;2024-03-07T08:56:21;100156.63;;;2.60;48.79
53011;BME280;42803;55.762;38.084;2024-03-07T08:58:50;100147.00;;;2.81;48.58
53011;BME280;42803;55.762;38.084;2024-03-07T09:01:20;100151.00;;;2.93;48.49
53011;BME280;42803;55.762;38.084;2024-03-07T09:03:50;100145.91;;;3.23;47.54
53011;BME280;42803;55.762;38.084;2024-03-07T09:06:20;100135.66;;;3.09;48.05
53011;BME280;42803;55.762;38.084;2024-03-07T09:08:50;100143.22;;;3.07;48.22
53011;BME280;42803;55.762;38.084;2024-03-07T09:11:21;100135.88;;;3.40;48.06
53011;BME280;42803;55.762;38.084;2024-03-07T09:13:50;100143.28;;;3.30;47.83
53011;BME280;42803;55.762;38.084;2024-03-07T09:16:19;100138.13;;;3.30;47.97
53011;BME280;42803;55.762;38.084;2024-03-07T09:18:49;100134.31;;;3.57;47.73
53011;BME280;42803;55.762;38.084;2024-03-07T09:21:19;100127.44;;;3.64;48.09
53011;BME280;42803;55.762;38.084;2024-03-07T09:23:49;100126.78;;;3.51;48.27
53011;BME280;42803;55.762;38.084;2024-03-07T09:26:18;100122.97;;;3.71;48.76
53011;BME280;42803;55.762;38.084;2024-03-07T09:28:49;100121.94;;;3.84;47.68
53011;BME280;42803;55.762;38.084;2024-03-07T09:31:18;100122.94;;;3.78;47.63
53011;BME280;42803;55.762;38.084;2024-03-07T09:38:58;100120.00;;;3.75;48.27
53011;BME280;42803;55.762;38.084;2024-03-07T09:41:28;100115.91;;;3.77;47.83
53011;BME280;42803;55.762;38.084;2024-03-07T09:44:00;100108.25;;;3.62;47.98
53011;BME280;42803;55.762;38.084;2024-03-07T09:46:31;100111.00;;;3.41;48.61
53011;BME280;42803;55.762;38.084;2024-03-07T09:49:01;100110.88;;;3.32;47.60
53011;BME280;42803;55.762;38.084;2024-03-07T09:51:30;100117.06;;;3.41;48.26
53011;BME280;42803;55.762;38.084;2024-03-07T09:54:00;100106.16;;;3.51;48.39
53011;BME280;42803;55.762;38.084;2024-03-07T09:56:30;100112.69;;;3.63;48.08
53011;BME280;42803;55.762;38.084;2024-03-07T09:59:11;100106.09;;;3.28;48.01
53011;BME280;42803;55.762;38.084;2024-03-07T10:01:41;100108.53;;;3.20;48.46
53011;BME280;42803;55.762;38.084;2024-03-07T10:04:13;100116.78;;;3.24;48.70
53011;BME280;42803;55.762;38.084;2024-03-07T10:06:45;100112.63;;;3.10;48.92
53011;BME280;42803;55.762;38.084;2024-03-07T10:09:16;100118.47;;;3.16;49.80
53011;BME280;42803;55.762;38.084;2024-03-07T10:11:55;100113.41;;;3.02;49.90
53011;BME280;42803;55.762;38.084;2024-03-07T10:14:26;100120.28;;;2.87;50.38
53011;BME280;42803;55.762;38.084;2024-03-07T10:16:56;100115.31;;;2.82;50.69
53011;BME280;42803;55.762;38.084;2024-03-07T10:19:28;100116.63;;;2.78;50.85
53011;BME280;42803;55.762;38.084;2024-03-07T10:21:58;100111.44;;;2.85;50.65
53011;BME280;42803;55.762;38.084;2024-03-07T10:24:29;100104.97;;;2.89;50.09
53011;BME280;42803;55.762;38.084;2024-03-07T10:27:00;100103.91;;;2.80;50.61
53011;BME280;42803;55.762;38.084;2024-03-07T10:29:31;100110.91;;;2.81;51.11
53011;BME280;42803;55.762;38.084;2024-03-07T10:32:01;100101.06;;;3.00;50.14
53011;BME280;42803;55.762;38.084;2024-03-07T10:34:40;100102.06;;;3.23;49.34
53011;BME280;42803;55.762;38.084;2024-03-07T10:37:14;100093.00;;;3.57;49.20
53011;BME280;42803;55.762;38.084;2024-03-07T10:39:50;100096.69;;;3.59;48.77
53011;BME280;42803;55.762;38.084;2024-03-07T10:42:19;100096.06;;;3.38;49.31
53011;BME280;42803;55.762;38.084;2024-03-07T10:44:56;100081.19;;;3.36;50.60
53011;BME280;42803;55.762;38.084;2024-03-07T10:47:31;100079.19;;;3.56;49.31
53011;BME280;42803;55.762;38.084;2024-03-07T10:50:09;100083.13;;;3.46;49.17
53011;BME280;42803;55.762;38.084;2024-03-07T10:52:59;100076.63;;;3.26;49.54
53011;BME280;42803;55.762;38.084;2024-03-07T10:55:34;100069.41;;;3.31;51.22
53011;BME280;42803;55.762;38.084;2024-03-07T10:58:19;100064.78;;;3.58;50.44
53011;BME280;42803;55.762;38.084;2024-03-07T11:00:52;100066.78;;;3.61;49.35
53011;BME280;42803;55.762;38.084;2024-03-07T11:03:24;100061.78;;;3.62;50.31
53011;BME280;42803;55.762;38.084;2024-03-07T11:05:54;100065.47;;;3.64;50.58
53011;BME280;42803;55.762;38.084;2024-03-07T11:08:25;100069.31;;;3.91;50.70
53011;BME280;42803;55.762;38.084;2024-03-07T11:10:55;100056.31;;;3.82;49.50
53011;BME280;42803;55.762;38.084;2024-03-07T11:13:25;100055.81;;;3.78;48.45
53011;BME280;42803;55.762;38.084;2024-03-07T11:15:56;100064.00;;;3.66;49.47
53011;BME280;42803;55.762;38.084;2024-03-07T11:18:28;100052.81;;;3.59;49.02
53011;BME280;42803;55.762;38.084;2024-03-07T11:20:58;100046.03;;;3.75;49.44
53011;BME280;42803;55.762;38.084;2024-03-07T11:23:28;100039.91;;;3.82;48.89
53011;BME280;42803;55.762;38.084;2024-03-07T11:26:03;100043.59;;;4.00;48.93
53011;BME280;42803;55.762;38.084;2024-03-07T11:28:37;100037.19;;;4.12;48.69
53011;BME280;42803;55.762;38.084;2024-03-07T11:31:15;100041.03;;;4.15;48.42
53011;BME280;42803;55.762;38.084;2024-03-07T11:34:20;100035.28;;;4.02;48.31
53011;BME280;42803;55.762;38.084;2024-03-07T11:36:58;100026.50;;;3.70;48.12
53011;BME280;42803;55.762;38.084;2024-03-07T11:39:44;100033.84;;;3.97;48.35
53011;BME280;42803;55.762;38.084;2024-03-07T11:42:23;100030.13;;;4.18;48.63
53011;BME280;42803;55.762;38.084;2024-03-07T11:44:55;100026.50;;;4.32;48.89
53011;BME280;42803;55.762;38.084;2024-03-07T11:47:38;100033.91;;;4.45;49.02
53011;BME280;42803;55.762;38.084;2024-03-07T11:50:12;100026.91;;;4.44;48.19
53011;BME280;42803;55.762;38.084;2024-03-07T11:53:01;100022.22;;;4.01;48.36
53011;BME280;42803;55.762;38.084;2024-03-07T11:55:37;100021.13;;;4.14;48.25
53011;BME280;42803;55.762;38.084;2024-03-07T11:58:14;100014.28;;;4.15;47.65
53011;BME280;42803;55.762;38.084;2024-03-07T12:00:45;100012.72;;;4.24;47.64
53011;BME280;42803;55.762;38.084;2024-03-07T12:03:17;100011.56;;;4.29;47.68
53011;BME280;42803;55.762;38.084;2024-03-07T12:05:51;100017.00;;;4.39;47.33
53011;BME280;42803;55.762;38.084;2024-03-07T12:08:22;100014.56;;;4.41;48.17
53011;BME280;42803;55.762;38.084;2024-03-07T12:10:54;100011.72;;;4.31;47.71
53011;BME280;42803;55.762;38.084;2024-03-07T12:13:26;100007.72;;;4.42;47.70
53011;BME280;42803;55.762;38.084;2024-03-07T12:15:57;99999.66;;;4.54;47.69
53011;BME280;42803;55.762;38.084;2024-03-07T12:18:29;99999.81;;;4.40;47.74
53011;BME280;42803;55.762;38.084;2024-03-07T12:20:59;100001.91;;;4.35;47.45
53011;BME280;42803;55.762;38.084;2024-03-07T12:23:37;99995.28;;;4.14;48.10
53011;BME280;42803;55.762;38.084;2024-03-07T12:26:09;99997.13;;;4.15;48.19
53011;BME280;42803;55.762;38.084;2024-03-07T12:28:44;99993.53;;;4.06;47.76
53011;BME280;42803;55.762;38.084;2024-03-07T12:31:15;99993.94;;;4.02;48.14
53011;BME280;42803;55.762;38.084;2024-03-07T12:33:46;99987.59;;;4.07;47.98
53011;BME280;42803;55.762;38.084;2024-03-07T12:36:32;99984.44;;;3.94;48.04
53011;BME280;42803;55.762;38.084;2024-03-07T12:39:21;99977.34;;;3.84;48.40
53011;BME280;42803;55.762;38.084;2024-03-07T12:41:56;99970.09;;;3.89;48.95
53011;BME280;42803;55.762;38.084;2024-03-07T12:44:26;99972.50;;;3.72;48.38
53011;BME280;42803;55.762;38.084;2024-03-07T12:46:56;99966.84;;;3.83;49.19
53011;BME280;42803;55.762;38.084;2024-03-07T12:49:26;99966.03;;;3.52;47.81
53011;BME280;42803;55.762;38.084;2024-03-07T12:51:56;99976.47;;;3.38;48.74
53011;BME280;42803;55.762;38.084;2024-03-07T12:54:45;99974.13;;;3.55;49.16
53011;BME280;42803;55.762;38.084;2024-03-07T12:57:16;99970.00;;;3.80;49.32
53011;BME280;42803;55.762;38.084;2024-03-07T12:59:45;99963.69;;;3.62;48.14
53011;BME280;42803;55.762;38.084;2024-03-07T13:02:14;99965.56;;;3.63;48.83
53011;BME280;42803;55.762;38.084;2024-03-07T13:04:45;99969.88;;;3.56;48.74
53011;BME280;42803;55.762;38.084;2024-03-07T13:07:32;99955.09;;;3.55;48.63